sensor_id;sensor_type;location;lat;lon;timestamp;temperature;humidity
19252;DHT22;9760;50.944;5.304;2024-03-02T00:00:11;7.30;99.90
19252;DHT22;9760;50.944;5.304;2024-03-02T00:02:42;7.20;99.90
19252;DHT22;9760;50.944;5.304;2024-03-02T00:05:11;7.20;99.90
19252;DHT22;9760;50.944;5.304;2024-03-02T00:07:58;7.10;99.90
19252;DHT22;9760;50.944;5.304;2024-03-02T00:10:39;7.10;99.90
19252;DHT22;9760;50.944;5.304;2024-03-02T00:13:06;7.00;99.90
19252;DHT22;9760;50.944;5.304;2024-03-02T00:15:54;7.00;99.90
19252;DHT22;9760;50.944;5.304;2024-03-02T00:18:34;7.10;99.90
19252;DHT22;9760;50.944;5.304;2024-03-02T00:21:00;7.10;99.90
19252;DHT22;9760;50.944;5.304;2024-03-02T00:23:32;7.20;99.90
19252;DHT22;9760;50.944;5.304;2024-03-02T00:25:59;7.20;99.90
19252;DHT22;9760;50.944;5.304;2024-03-02T00:30:59;7.30;99.90
19252;DHT22;9760;50.944;5.304;2024-03-02T00:33:35;7.30;99.90
19252;DHT22;9760;50.944;5.304;2024-03-02T00:36:02;7.30;99.90
19252;DHT22;9760;50.944;5.304;2024-03-02T00:38:32;7.40;99.90
19252;DHT22;9760;50.944;5.304;2024-03-02T00:41:05;7.50;99.90
19252;DHT22;9760;50.944;5.304;2024-03-02T00:46:06;7.60;99.90
19252;DHT22;9760;50.944;5.304;2024-03-02T00:48:32;7.60;99.90
19252;DHT22;9760;50.944;5.304;2024-03-02T00:51:01;7.60;99.90
19252;DHT22;9760;50.944;5.304;2024-03-02T00:53:29;7.60;99.90
19252;DHT22;9760;50.944;5.304;2024-03-02T00:55:55;7.70;99.90
19252;DHT22;9760;50.944;5.304;2024-03-02T00:58:21;7.70;99.90
19252;DHT22;9760;50.944;5.304;2024-03-02T01:00:47;7.70;99.90
19252;DHT22;9760;50.944;5.304;2024-03-02T01:03:12;7.80;99.90
19252;DHT22;9760;50.944;5.304;2024-03-02T01:05:42;7.80;99.90
19252;DHT22;9760;50.944;5.304;2024-03-02T01:08:08;7.80;99.90
19252;DHT22;9760;50.944;5.304;2024-03-02T01:10:34;7.80;99.90
19252;DHT22;9760;50.944;5.304;2024-03-02T01:13:00;7.80;99.90
19252;DHT22;9760;50.944;5.304;2024-03-02T01:15:25;7.80;99.90
19252;DHT22;9760;50.944;5.304;2024-03-02T01:17:51;7.80;99.90
19252;DHT22;9760;50.944;5.304;2024-03-02T01:20:16;7.80;99.90
19252;DHT22;9760;50.944;5.304;2024-03-02T01:22:42;7.70;99.90
19252;DHT22;9760;50.944;5.304;2024-03-02T01:25:09;7.70;99.90
19252;DHT22;9760;50.944;5.304;2024-03-02T01:27:34;7.60;99.90
19252;DHT22;9760;50.944;5.304;2024-03-02T01:30:00;7.60;99.90
19252;DHT22;9760;50.944;5.304;2024-03-02T01:32:25;7.60;99.90
19252;DHT22;9760;50.944;5.304;2024-03-02T01:34:51;7.60;99.90
19252;DHT22;9760;50.944;5.304;2024-03-02T01:37:17;7.60;99.90
19252;DHT22;9760;50.944;5.304;2024-03-02T01:39:42;7.50;99.90
19252;DHT22;9760;50.944;5.304;2024-03-02T01:42:08;7.60;99.90
19252;DHT22;9760;50.944;5.304;2024-03-02T01:44:33;7.50;99.90
19252;DHT22;9760;50.944;5.304;2024-03-02T01:46:59;7.50;99.90
19252;DHT22;9760;50.944;5.304;2024-03-02T01:49:25;7.50;99.90
19252;DHT22;9760;50.944;5.304;2024-03-02T01:51:50;7.50;99.90
19252;DHT22;9760;50.944;5.304;2024-03-02T01:54:16;7.50;99.90
19252;DHT22;9760;50.944;5.304;2024-03-02T01:56:42;7.50;99.90
19252;DHT22;9760;50.944;5.304;2024-03-02T01:59:07;7.40;99.90
19252;DHT22;9760;50.944;5.304;2024-03-02T02:01:33;7.40;99.90
19252;DHT22;9760;50.944;5.304;2024-03-02T02:03:58;7.40;99.90
19252;DHT22;9760;50.944;5.304;2024-03-02T02:06:24;7.50;99.90
19252;DHT22;9760;50.944;5.304;2024-03-02T02:08:50;7.50;99.90
19252;DHT22;9760;50.944;5.304;2024-03-02T02:11:16;7.50;99.90
19252;DHT22;9760;50.944;5.304;2024-03-02T02:13:42;7.60;99.90
19252;DHT22;9760;50.944;5.304;2024-03-02T02:16:08;7.60;99.90
19252;DHT22;9760;50.944;5.304;2024-03-02T02:18:34;7.60;99.90
19252;DHT22;9760;50.944;5.304;2024-03-02T02:21:01;7.60;99.90
19252;DHT22;9760;50.944;5.304;2024-03-02T02:23:27;7.60;99.90
19252;DHT22;9760;50.944;5.304;2024-03-02T02:25:53;7.60;99.90
19252;DHT22;9760;50.944;5.304;2024-03-02T02:28:20;7.50;99.90
19252;DHT22;9760;50.944;5.304;2024-03-02T02:30:45;7.50;99.90
19252;DHT22;9760;50.944;5.304;2024-03-02T02:33:11;7.50;99.90
19252;DHT22;9760;50.944;5.304;2024-03-02T02:35:37;7.40;99.90
19252;DHT22;9760;50.944;5.304;2024-03-02T02:38:03;7.40;99.90
19252;DHT22;9760;50.944;5.304;2024-03-02T02:40:29;7.40;99.90
19252;DHT22;9760;50.944;5.304;2024-03-02T02:42:58;7.40;99.90
19252;DHT22;9760;50.944;5.304;2024-03-02T02:45:24;7.30;99.90
19252;DHT22;9760;50.944;5.304;2024-03-02T02:47:50;7.40;99.90
19252;DHT22;9760;50.944;5.304;2024-03-02T02:50:16;7.40;99.90
19252;DHT22;9760;50.944;5.304;2024-03-02T02:52:42;7.40;99.90
19252;DHT22;9760;50.944;5.304;2024-03-02T02:55:09;7.40;99.90
19252;DHT22;9760;50.944;5.304;2024-03-02T02:57:36;7.40;99.90
19252;DHT22;9760;50.944;5.304;2024-03-02T03:00:14;7.40;99.90
19252;DHT22;9760;50.944;5.304;2024-03-02T03:02:42;7.40;99.90
19252;DHT22;9760;50.944;5.304;2024-03-02T03:05:09;7.40;99.90
19252;DHT22;9760;50.944;5.304;2024-03-02T03:07:35;7.40;99.90
19252;DHT22;9760;50.944;5.304;2024-03-02T03:10:02;7.50;99.90
19252;DHT22;9760;50.944;5.304;2024-03-02T03:12:29;7.40;99.90
19252;DHT22;9760;50.944;5.304;2024-03-02T03:14:55;7.40;99.90
19252;DHT22;9760;50.944;5.304;2024-03-02T03:17:21;7.40;99.90
19252;DHT22;9760;50.944;5.304;2024-03-02T03:19:47;7.40;99.90
19252;DHT22;9760;50.944;5.304;2024-03-02T03:22:13;7.40;99.90
19252;DHT22;9760;50.944;5.304;2024-03-02T03:24:39;7.40;99.90
19252;DHT22;9760;50.944;5.304;2024-03-02T03:27:04;7.40;99.90
19252;DHT22;9760;50.944;5.304;2024-03-02T03:29:30;7.40;99.90
19252;DHT22;9760;50.944;5.304;2024-03-02T03:31:55;7.30;99.90
19252;DHT22;9760;50.944;5.304;2024-03-02T03:34:21;7.30;99.90
19252;DHT22;9760;50.944;5.304;2024-03-02T03:36:47;7.30;99.90
19252;DHT22;9760;50.944;5.304;2024-03-02T03:39:12;7.30;99.90
19252;DHT22;9760;50.944;5.304;2024-03-02T03:41:38;7.30;99.90
19252;DHT22;9760;50.944;5.304;2024-03-02T03:44:03;7.30;99.90
19252;DHT22;9760;50.944;5.304;2024-03-02T03:46:29;7.20;99.90
19252;DHT22;9760;50.944;5.304;2024-03-02T03:48:55;7.20;99.90
19252;DHT22;9760;50.944;5.304;2024-03-02T03:51:21;7.30;99.90
19252;DHT22;9760;50.944;5.304;2024-03-02T03:53:48;7.30;99.90
19252;DHT22;9760;50.944;5.304;2024-03-02T03:56:14;7.40;99.90
19252;DHT22;9760;50.944;5.304;2024-03-02T03:58:39;7.40;99.90
19252;DHT22;9760;50.944;5.304;2024-03-02T04:01:05;7.40;99.90
19252;DHT22;9760;50.944;5.304;2024-03-02T04:03:30;7.40;99.90
19252;DHT22;9760;50.944;5.304;2024-03-02T04:05:56;7.40;99.90
19252;DHT22;9760;50.944;5.304;2024-03-02T04:08:22;7.40;99.90
19252;DHT22;9760;50.944;5.304;2024-03-02T04:10:48;7.40;99.90
19252;DHT22;9760;50.944;5.304;2024-03-02T04:13:14;7.40;99.90
19252;DHT22;9760;50.944;5.304;2024-03-02T04:15:39;7.40;99.90
19252;DHT22;9760;50.944;5.304;2024-03-02T04:18:06;7.30;99.90
19252;DHT22;9760;50.944;5.304;2024-03-02T04:20:32;7.30;99.90
19252;DHT22;9760;50.944;5.304;2024-03-02T04:22:57;7.20;99.90
19252;DHT22;9760;50.944;5.304;2024-03-02T04:25:23;7.20;99.90
19252;DHT22;9760;50.944;5.304;2024-03-02T04:27:48;7.10;99.90
19252;DHT22;9760;50.944;5.304;2024-03-02T04:30:14;7.10;99.90
19252;DHT22;9760;50.944;5.304;2024-03-02T04:32:40;7.10;99.90
19252;DHT22;9760;50.944;5.304;2024-03-02T04:35:06;7.00;99.90
19252;DHT22;9760;50.944;5.304;2024-03-02T04:37:35;7.10;99.90
19252;DHT22;9760;50.944;5.304;2024-03-02T04:40:01;7.10;99.90
19252;DHT22;9760;50.944;5.304;2024-03-02T04:42:26;7.10;99.90
19252;DHT22;9760;50.944;5.304;2024-03-02T04:44:52;7.10;99.90
19252;DHT22;9760;50.944;5.304;2024-03-02T04:47:17;7.20;99.90
19252;DHT22;9760;50.944;5.304;2024-03-02T04:49:43;7.20;99.90
19252;DHT22;9760;50.944;5.304;2024-03-02T04:52:09;7.20;99.90
19252;DHT22;9760;50.944;5.304;2024-03-02T04:54:35;7.20;99.90
19252;DHT22;9760;50.944;5.304;2024-03-02T04:57:23;7.20;99.90
19252;DHT22;9760;50.944;5.304;2024-03-02T04:59:49;7.10;99.90
19252;DHT22;9760;50.944;5.304;2024-03-02T05:02:14;7.00;99.90
19252;DHT22;9760;50.944;5.304;2024-03-02T05:04:40;7.00;99.90
19252;DHT22;9760;50.944;5.304;2024-03-02T05:07:07;6.90;99.90
19252;DHT22;9760;50.944;5.304;2024-03-02T05:09:33;6.90;99.90
19252;DHT22;9760;50.944;5.304;2024-03-02T05:11:58;6.80;99.90
19252;DHT22;9760;50.944;5.304;2024-03-02T05:14:43;6.80;99.90
19252;DHT22;9760;50.944;5.304;2024-03-02T05:17:08;6.70;99.90
19252;DHT22;9760;50.944;5.304;2024-03-02T05:19:34;6.70;99.90
19252;DHT22;9760;50.944;5.304;2024-03-02T05:21:59;6.70;99.90
19252;DHT22;9760;50.944;5.304;2024-03-02T05:24:25;6.70;99.90
19252;DHT22;9760;50.944;5.304;2024-03-02T05:26:53;6.60;99.90
19252;DHT22;9760;50.944;5.304;2024-03-02T05:29:19;6.60;99.90
19252;DHT22;9760;50.944;5.304;2024-03-02T05:31:44;6.60;99.90
19252;DHT22;9760;50.944;5.304;2024-03-02T05:34:10;6.60;99.90
19252;DHT22;9760;50.944;5.304;2024-03-02T05:36:36;6.60;99.90
19252;DHT22;9760;50.944;5.304;2024-03-02T05:39:04;6.60;99.90
19252;DHT22;9760;50.944;5.304;2024-03-02T05:41:31;6.50;99.90
19252;DHT22;9760;50.944;5.304;2024-03-02T05:43:57;6.50;99.90
19252;DHT22;9760;50.944;5.304;2024-03-02T05:46:23;6.50;99.90
19252;DHT22;9760;50.944;5.304;2024-03-02T05:48:48;6.50;99.90
19252;DHT22;9760;50.944;5.304;2024-03-02T05:51:14;6.50;99.90
19252;DHT22;9760;50.944;5.304;2024-03-02T05:53:39;6.50;99.90
19252;DHT22;9760;50.944;5.304;2024-03-02T05:56:05;6.50;99.90
19252;DHT22;9760;50.944;5.304;2024-03-02T05:58:31;6.60;99.90
19252;DHT22;9760;50.944;5.304;2024-03-02T06:01:15;6.60;99.90
19252;DHT22;9760;50.944;5.304;2024-03-02T06:03:43;6.60;99.90
19252;DHT22;9760;50.944;5.304;2024-03-02T06:06:09;6.50;99.90
19252;DHT22;9760;50.944;5.304;2024-03-02T06:08:34;6.60;99.90
19252;DHT22;9760;50.944;5.304;2024-03-02T06:11:00;6.50;99.90
19252;DHT22;9760;50.944;5.304;2024-03-02T06:13:26;6.60;99.90
19252;DHT22;9760;50.944;5.304;2024-03-02T06:15:52;6.50;99.90
19252;DHT22;9760;50.944;5.304;2024-03-02T06:18:18;6.50;99.90
19252;DHT22;9760;50.944;5.304;2024-03-02T06:20:43;6.50;99.90
19252;DHT22;9760;50.944;5.304;2024-03-02T06:23:09;6.60;99.90
19252;DHT22;9760;50.944;5.304;2024-03-02T06:25:34;6.60;99.90
19252;DHT22;9760;50.944;5.304;2024-03-02T06:28:00;6.60;99.90
19252;DHT22;9760;50.944;5.304;2024-03-02T06:30:26;6.60;99.90
19252;DHT22;9760;50.944;5.304;2024-03-02T06:32:51;6.60;99.90
19252;DHT22;9760;50.944;5.304;2024-03-02T06:35:17;6.60;99.90
19252;DHT22;9760;50.944;5.304;2024-03-02T06:37:43;6.60;99.90
19252;DHT22;9760;50.944;5.304;2024-03-02T06:40:09;6.60;99.90
19252;DHT22;9760;50.944;5.304;2024-03-02T06:42:35;6.60;99.90
19252;DHT22;9760;50.944;5.304;2024-03-02T06:45:02;6.60;99.90
19252;DHT22;9760;50.944;5.304;2024-03-02T06:47:28;6.60;99.90
19252;DHT22;9760;50.944;5.304;2024-03-02T06:49:53;6.60;99.90
19252;DHT22;9760;50.944;5.304;2024-03-02T06:52:19;6.70;99.90
19252;DHT22;9760;50.944;5.304;2024-03-02T06:54:46;6.60;99.90
19252;DHT22;9760;50.944;5.304;2024-03-02T06:57:12;6.60;99.90
19252;DHT22;9760;50.944;5.304;2024-03-02T06:59:37;6.70;99.90
19252;DHT22;9760;50.944;5.304;2024-03-02T07:02:03;6.70;99.90
19252;DHT22;9760;50.944;5.304;2024-03-02T07:04:29;6.70;99.90
19252;DHT22;9760;50.944;5.304;2024-03-02T07:06:54;6.70;99.90
19252;DHT22;9760;50.944;5.304;2024-03-02T07:09:20;6.70;99.90
19252;DHT22;9760;50.944;5.304;2024-03-02T07:11:48;6.80;99.90
19252;DHT22;9760;50.944;5.304;2024-03-02T07:14:14;6.80;99.90
19252;DHT22;9760;50.944;5.304;2024-03-02T07:16:40;6.80;99.90
19252;DHT22;9760;50.944;5.304;2024-03-02T07:19:06;6.80;99.90
19252;DHT22;9760;50.944;5.304;2024-03-02T07:21:32;6.80;99.90
19252;DHT22;9760;50.944;5.304;2024-03-02T07:24:00;6.80;99.90
19252;DHT22;9760;50.944;5.304;2024-03-02T07:26:29;6.80;99.90
19252;DHT22;9760;50.944;5.304;2024-03-02T07:28:56;6.80;99.90
19252;DHT22;9760;50.944;5.304;2024-03-02T07:31:22;6.80;99.90
19252;DHT22;9760;50.944;5.304;2024-03-02T07:33:48;6.80;99.90
19252;DHT22;9760;50.944;5.304;2024-03-02T07:36:14;6.80;99.90
19252;DHT22;9760;50.944;5.304;2024-03-02T07:38:41;6.80;99.90
19252;DHT22;9760;50.944;5.304;2024-03-02T07:41:08;6.80;99.90
19252;DHT22;9760;50.944;5.304;2024-03-02T07:43:34;6.90;99.90
19252;DHT22;9760;50.944;5.304;2024-03-02T07:46:00;6.90;99.90
19252;DHT22;9760;50.944;5.304;2024-03-02T07:48:26;6.90;99.90
19252;DHT22;9760;50.944;5.304;2024-03-02T07:50:52;7.00;99.90
19252;DHT22;9760;50.944;5.304;2024-03-02T07:53:17;7.10;99.90
19252;DHT22;9760;50.944;5.304;2024-03-02T07:55:43;7.20;99.90
19252;DHT22;9760;50.944;5.304;2024-03-02T07:58:09;7.30;99.90
19252;DHT22;9760;50.944;5.304;2024-03-02T08:00:38;7.40;99.90
19252;DHT22;9760;50.944;5.304;2024-03-02T08:03:04;7.50;99.90
19252;DHT22;9760;50.944;5.304;2024-03-02T08:05:30;7.60;99.90
19252;DHT22;9760;50.944;5.304;2024-03-02T08:07:55;7.70;99.90
19252;DHT22;9760;50.944;5.304;2024-03-02T08:10:21;7.80;99.90
19252;DHT22;9760;50.944;5.304;2024-03-02T08:12:47;7.90;99.90
19252;DHT22;9760;50.944;5.304;2024-03-02T08:15:12;8.00;99.90
19252;DHT22;9760;50.944;5.304;2024-03-02T08:17:39;8.00;99.90
19252;DHT22;9760;50.944;5.304;2024-03-02T08:20:11;8.10;99.90
19252;DHT22;9760;50.944;5.304;2024-03-02T08:22:37;8.20;99.90
19252;DHT22;9760;50.944;5.304;2024-03-02T08:25:02;8.20;99.90
19252;DHT22;9760;50.944;5.304;2024-03-02T08:27:28;8.20;99.90
19252;DHT22;9760;50.944;5.304;2024-03-02T08:29:54;8.30;99.90
19252;DHT22;9760;50.944;5.304;2024-03-02T08:32:19;8.30;99.90
19252;DHT22;9760;50.944;5.304;2024-03-02T08:34:45;8.40;99.90
19252;DHT22;9760;50.944;5.304;2024-03-02T08:37:11;8.40;99.90
19252;DHT22;9760;50.944;5.304;2024-03-02T08:39:36;8.50;99.90
19252;DHT22;9760;50.944;5.304;2024-03-02T08:42:02;8.60;99.90
19252;DHT22;9760;50.944;5.304;2024-03-02T08:44:30;8.60;99.90
19252;DHT22;9760;50.944;5.304;2024-03-02T08:46:55;8.70;99.90
19252;DHT22;9760;50.944;5.304;2024-03-02T08:49:21;8.70;99.90
19252;DHT22;9760;50.944;5.304;2024-03-02T08:51:47;8.90;99.90
19252;DHT22;9760;50.944;5.304;2024-03-02T08:54:22;8.90;99.90
19252;DHT22;9760;50.944;5.304;2024-03-02T08:56:49;9.00;99.90
19252;DHT22;9760;50.944;5.304;2024-03-02T08:59:15;9.10;99.90
19252;DHT22;9760;50.944;5.304;2024-03-02T09:01:41;9.20;99.90
19252;DHT22;9760;50.944;5.304;2024-03-02T09:04:07;9.30;99.90
19252;DHT22;9760;50.944;5.304;2024-03-02T09:06:36;9.40;99.90
19252;DHT22;9760;50.944;5.304;2024-03-02T09:09:01;9.40;99.90
19252;DHT22;9760;50.944;5.304;2024-03-02T09:11:27;9.40;99.90
19252;DHT22;9760;50.944;5.304;2024-03-02T09:13:53;9.40;99.90
19252;DHT22;9760;50.944;5.304;2024-03-02T09:16:20;9.40;99.90
19252;DHT22;9760;50.944;5.304;2024-03-02T09:18:46;9.40;99.90
19252;DHT22;9760;50.944;5.304;2024-03-02T09:21:11;9.50;99.90
19252;DHT22;9760;50.944;5.304;2024-03-02T09:23:37;9.70;99.90
19252;DHT22;9760;50.944;5.304;2024-03-02T09:26:03;9.80;99.90
19252;DHT22;9760;50.944;5.304;2024-03-02T09:28:29;9.90;99.90
19252;DHT22;9760;50.944;5.304;2024-03-02T09:30:55;9.90;99.90
19252;DHT22;9760;50.944;5.304;2024-03-02T09:33:20;10.00;99.90
19252;DHT22;9760;50.944;5.304;2024-03-02T09:35:46;10.10;99.90
19252;DHT22;9760;50.944;5.304;2024-03-02T09:38:12;10.10;99.90
19252;DHT22;9760;50.944;5.304;2024-03-02T09:40:37;10.20;99.90
19252;DHT22;9760;50.944;5.304;2024-03-02T09:43:03;10.30;99.90
19252;DHT22;9760;50.944;5.304;2024-03-02T09:45:30;10.30;99.90
19252;DHT22;9760;50.944;5.304;2024-03-02T09:47:55;10.10;99.90
19252;DHT22;9760;50.944;5.304;2024-03-02T09:50:21;10.10;99.90
19252;DHT22;9760;50.944;5.304;2024-03-02T09:52:48;10.30;99.90
19252;DHT22;9760;50.944;5.304;2024-03-02T09:55:15;10.30;99.90
19252;DHT22;9760;50.944;5.304;2024-03-02T09:57:42;10.30;99.90
19252;DHT22;9760;50.944;5.304;2024-03-02T10:00:08;10.50;99.90
19252;DHT22;9760;50.944;5.304;2024-03-02T10:02:34;10.50;99.90
19252;DHT22;9760;50.944;5.304;2024-03-02T10:05:00;10.50;99.90
19252;DHT22;9760;50.944;5.304;2024-03-02T10:07:25;10.60;99.90
19252;DHT22;9760;50.944;5.304;2024-03-02T10:09:51;10.70;99.90
19252;DHT22;9760;50.944;5.304;2024-03-02T10:12:19;10.90;99.90
19252;DHT22;9760;50.944;5.304;2024-03-02T10:14:45;11.10;99.90
19252;DHT22;9760;50.944;5.304;2024-03-02T10:17:12;11.20;99.90
19252;DHT22;9760;50.944;5.304;2024-03-02T10:19:39;11.10;99.90
19252;DHT22;9760;50.944;5.304;2024-03-02T10:22:07;11.00;99.90
19252;DHT22;9760;50.944;5.304;2024-03-02T10:24:42;10.90;99.90
19252;DHT22;9760;50.944;5.304;2024-03-02T10:27:10;10.90;99.90
19252;DHT22;9760;50.944;5.304;2024-03-02T10:29:40;10.90;99.90
19252;DHT22;9760;50.944;5.304;2024-03-02T10:32:09;10.90;99.90
19252;DHT22;9760;50.944;5.304;2024-03-02T10:34:35;11.00;99.90
19252;DHT22;9760;50.944;5.304;2024-03-02T10:37:01;11.00;99.90
19252;DHT22;9760;50.944;5.304;2024-03-02T10:39:28;11.00;99.90
19252;DHT22;9760;50.944;5.304;2024-03-02T10:41:55;11.20;99.90
19252;DHT22;9760;50.944;5.304;2024-03-02T10:44:22;11.40;99.90
19252;DHT22;9760;50.944;5.304;2024-03-02T10:46:49;11.70;99.90
19252;DHT22;9760;50.944;5.304;2024-03-02T10:49:16;12.00;99.90
19252;DHT22;9760;50.944;5.304;2024-03-02T10:51:43;12.20;99.90
19252;DHT22;9760;50.944;5.304;2024-03-02T10:54:08;12.30;99.90
19252;DHT22;9760;50.944;5.304;2024-03-02T10:56:39;12.60;99.90
19252;DHT22;9760;50.944;5.304;2024-03-02T10:59:26;13.00;99.90
19252;DHT22;9760;50.944;5.304;2024-03-02T11:01:57;13.00;99.90
19252;DHT22;9760;50.944;5.304;2024-03-02T11:04:28;13.30;99.90
19252;DHT22;9760;50.944;5.304;2024-03-02T11:07:04;13.80;99.90
19252;DHT22;9760;50.944;5.304;2024-03-02T11:09:35;14.20;99.90
19252;DHT22;9760;50.944;5.304;2024-03-02T11:12:12;14.30;99.90
19252;DHT22;9760;50.944;5.304;2024-03-02T11:14:40;14.50;99.90
19252;DHT22;9760;50.944;5.304;2024-03-02T11:17:09;14.50;99.90
19252;DHT22;9760;50.944;5.304;2024-03-02T11:19:37;14.10;99.90
19252;DHT22;9760;50.944;5.304;2024-03-02T11:22:03;13.70;99.90
19252;DHT22;9760;50.944;5.304;2024-03-02T11:24:31;13.70;99.90
19252;DHT22;9760;50.944;5.304;2024-03-02T11:26:59;14.00;99.90
19252;DHT22;9760;50.944;5.304;2024-03-02T11:32:16;13.40;99.90
19252;DHT22;9760;50.944;5.304;2024-03-02T11:34:44;12.80;99.90
19252;DHT22;9760;50.944;5.304;2024-03-02T11:37:15;12.80;99.90
19252;DHT22;9760;50.944;5.304;2024-03-02T11:39:43;12.60;99.90
19252;DHT22;9760;50.944;5.304;2024-03-02T11:42:11;12.60;99.90
19252;DHT22;9760;50.944;5.304;2024-03-02T11:44:37;12.80;99.90
19252;DHT22;9760;50.944;5.304;2024-03-02T11:47:06;12.70;99.90
19252;DHT22;9760;50.944;5.304;2024-03-02T11:49:45;12.70;99.90
19252;DHT22;9760;50.944;5.304;2024-03-02T11:52:15;12.60;99.90
19252;DHT22;9760;50.944;5.304;2024-03-02T11:54:44;12.60;99.90
19252;DHT22;9760;50.944;5.304;2024-03-02T11:57:21;12.70;99.90
19252;DHT22;9760;50.944;5.304;2024-03-02T11:59:50;12.80;99.90
19252;DHT22;9760;50.944;5.304;2024-03-02T12:02:18;12.70;99.90
19252;DHT22;9760;50.944;5.304;2024-03-02T12:04:44;12.80;99.90
19252;DHT22;9760;50.944;5.304;2024-03-02T12:07:21;13.00;99.90
19252;DHT22;9760;50.944;5.304;2024-03-02T12:09:48;13.10;99.90
19252;DHT22;9760;50.944;5.304;2024-03-02T12:12:14;13.00;99.90
19252;DHT22;9760;50.944;5.304;2024-03-02T12:14:53;13.00;99.90
19252;DHT22;9760;50.944;5.304;2024-03-02T12:17:21;13.10;99.90
19252;DHT22;9760;50.944;5.304;2024-03-02T12:19:46;13.00;99.90
19252;DHT22;9760;50.944;5.304;2024-03-02T12:22:12;13.10;99.90
19252;DHT22;9760;50.944;5.304;2024-03-02T12:24:38;13.10;99.90
19252;DHT22;9760;50.944;5.304;2024-03-02T12:27:05;13.00;99.90
19252;DHT22;9760;50.944;5.304;2024-03-02T12:29:32;13.10;99.90
19252;DHT22;9760;50.944;5.304;2024-03-02T12:31:59;13.10;99.90
19252;DHT22;9760;50.944;5.304;2024-03-02T12:34:26;13.10;99.90
19252;DHT22;9760;50.944;5.304;2024-03-02T12:36:52;13.30;99.90
19252;DHT22;9760;50.944;5.304;2024-03-02T12:39:21;13.50;99.90
19252;DHT22;9760;50.944;5.304;2024-03-02T12:41:49;13.40;99.90
19252;DHT22;9760;50.944;5.304;2024-03-02T12:44:16;13.40;99.90
19252;DHT22;9760;50.944;5.304;2024-03-02T12:46:43;13.30;99.90
19252;DHT22;9760;50.944;5.304;2024-03-02T12:49:13;13.30;99.90
19252;DHT22;9760;50.944;5.304;2024-03-02T12:51:40;13.60;99.90
19252;DHT22;9760;50.944;5.304;2024-03-02T12:54:10;13.30;99.90
19252;DHT22;9760;50.944;5.304;2024-03-02T12:56:38;13.50;99.90
19252;DHT22;9760;50.944;5.304;2024-03-02T12:59:04;13.50;99.90
19252;DHT22;9760;50.944;5.304;2024-03-02T13:01:30;13.40;99.90
19252;DHT22;9760;50.944;5.304;2024-03-02T13:03:58;13.40;99.90
19252;DHT22;9760;50.944;5.304;2024-03-02T13:06:25;13.40;99.90
19252;DHT22;9760;50.944;5.304;2024-03-02T13:08:53;13.50;99.90
19252;DHT22;9760;50.944;5.304;2024-03-02T13:11:19;13.60;99.90
19252;DHT22;9760;50.944;5.304;2024-03-02T13:13:45;13.70;99.90
19252;DHT22;9760;50.944;5.304;2024-03-02T13:16:11;13.80;99.90
19252;DHT22;9760;50.944;5.304;2024-03-02T13:18:41;13.90;99.90
19252;DHT22;9760;50.944;5.304;2024-03-02T13:21:08;13.90;99.90
19252;DHT22;9760;50.944;5.304;2024-03-02T13:23:34;13.90;99.90
19252;DHT22;9760;50.944;5.304;2024-03-02T13:25:59;14.10;99.90
19252;DHT22;9760;50.944;5.304;2024-03-02T13:28:26;14.10;99.90
19252;DHT22;9760;50.944;5.304;2024-03-02T13:30:52;14.00;99.90
19252;DHT22;9760;50.944;5.304;2024-03-02T13:33:18;14.00;99.90
19252;DHT22;9760;50.944;5.304;2024-03-02T13:35:50;14.20;99.90
19252;DHT22;9760;50.944;5.304;2024-03-02T13:38:20;14.40;99.90
19252;DHT22;9760;50.944;5.304;2024-03-02T13:40:46;14.50;99.90
19252;DHT22;9760;50.944;5.304;2024-03-02T13:43:13;14.60;99.90
19252;DHT22;9760;50.944;5.304;2024-03-02T13:45:39;14.40;99.90
19252;DHT22;9760;50.944;5.304;2024-03-02T13:48:05;14.30;99.90
19252;DHT22;9760;50.944;5.304;2024-03-02T13:50:31;14.10;99.90
19252;DHT22;9760;50.944;5.304;2024-03-02T13:52:57;13.90;99.90
19252;DHT22;9760;50.944;5.304;2024-03-02T13:55:22;13.90;99.90
19252;DHT22;9760;50.944;5.304;2024-03-02T13:57:48;14.00;99.90
19252;DHT22;9760;50.944;5.304;2024-03-02T14:00:16;13.90;99.90
19252;DHT22;9760;50.944;5.304;2024-03-02T14:02:43;14.00;99.90
19252;DHT22;9760;50.944;5.304;2024-03-02T14:05:08;14.10;99.90
19252;DHT22;9760;50.944;5.304;2024-03-02T14:07:38;14.10;99.90
19252;DHT22;9760;50.944;5.304;2024-03-02T14:10:04;14.20;99.90
19252;DHT22;9760;50.944;5.304;2024-03-02T14:12:29;14.20;99.90
19252;DHT22;9760;50.944;5.304;2024-03-02T14:14:56;14.30;99.90
19252;DHT22;9760;50.944;5.304;2024-03-02T14:17:24;14.30;99.90
19252;DHT22;9760;50.944;5.304;2024-03-02T14:19:50;14.40;99.90
19252;DHT22;9760;50.944;5.304;2024-03-02T14:22:16;14.10;99.90
19252;DHT22;9760;50.944;5.304;2024-03-02T14:24:43;14.10;99.90
19252;DHT22;9760;50.944;5.304;2024-03-02T14:27:09;14.10;99.90
19252;DHT22;9760;50.944;5.304;2024-03-02T14:29:35;14.30;99.90
19252;DHT22;9760;50.944;5.304;2024-03-02T14:32:03;14.30;99.90
19252;DHT22;9760;50.944;5.304;2024-03-02T14:34:29;14.20;99.90
19252;DHT22;9760;50.944;5.304;2024-03-02T14:36:55;14.10;99.90
19252;DHT22;9760;50.944;5.304;2024-03-02T14:39:20;14.20;99.90
19252;DHT22;9760;50.944;5.304;2024-03-02T14:41:46;14.20;99.90
19252;DHT22;9760;50.944;5.304;2024-03-02T14:44:12;14.00;99.90
19252;DHT22;9760;50.944;5.304;2024-03-02T14:46:38;14.00;99.90
19252;DHT22;9760;50.944;5.304;2024-03-02T14:49:04;13.90;99.90
19252;DHT22;9760;50.944;5.304;2024-03-02T14:51:30;13.90;99.90
19252;DHT22;9760;50.944;5.304;2024-03-02T14:53:56;13.90;99.90
19252;DHT22;9760;50.944;5.304;2024-03-02T14:56:21;13.80;99.90
19252;DHT22;9760;50.944;5.304;2024-03-02T14:58:47;13.70;99.90
19252;DHT22;9760;50.944;5.304;2024-03-02T15:01:13;13.70;99.90
19252;DHT22;9760;50.944;5.304;2024-03-02T15:03:40;13.70;99.90
19252;DHT22;9760;50.944;5.304;2024-03-02T15:06:06;13.80;99.90
19252;DHT22;9760;50.944;5.304;2024-03-02T15:08:33;13.90;99.90
19252;DHT22;9760;50.944;5.304;2024-03-02T15:10:59;13.90;99.90
19252;DHT22;9760;50.944;5.304;2024-03-02T15:13:26;13.80;99.90
19252;DHT22;9760;50.944;5.304;2024-03-02T15:15:52;13.60;99.90
19252;DHT22;9760;50.944;5.304;2024-03-02T15:18:18;13.60;99.90
19252;DHT22;9760;50.944;5.304;2024-03-02T15:20:44;13.50;99.90
19252;DHT22;9760;50.944;5.304;2024-03-02T15:23:09;13.40;99.90
19252;DHT22;9760;50.944;5.304;2024-03-02T15:25:36;13.40;99.90
19252;DHT22;9760;50.944;5.304;2024-03-02T15:28:01;13.40;99.90
19252;DHT22;9760;50.944;5.304;2024-03-02T15:30:27;13.30;99.90
19252;DHT22;9760;50.944;5.304;2024-03-02T15:32:53;13.30;99.90
19252;DHT22;9760;50.944;5.304;2024-03-02T15:35:18;13.20;99.90
19252;DHT22;9760;50.944;5.304;2024-03-02T15:37:44;13.20;99.90
19252;DHT22;9760;50.944;5.304;2024-03-02T15:40:10;13.20;99.90
19252;DHT22;9760;50.944;5.304;2024-03-02T15:42:36;13.20;99.90
19252;DHT22;9760;50.944;5.304;2024-03-02T15:45:02;13.30;99.90
19252;DHT22;9760;50.944;5.304;2024-03-02T15:47:28;13.30;99.90
19252;DHT22;9760;50.944;5.304;2024-03-02T15:49:54;13.50;99.90
19252;DHT22;9760;50.944;5.304;2024-03-02T15:52:20;13.40;99.90
19252;DHT22;9760;50.944;5.304;2024-03-02T15:54:47;13.50;99.90
19252;DHT22;9760;50.944;5.304;2024-03-02T15:57:13;13.40;99.90
19252;DHT22;9760;50.944;5.304;2024-03-02T15:59:39;13.40;99.90